sensor_id;sensor_type;location;lat;lon;timestamp;temperature;humidity
14006;DHT22;7078;51.542;7.314;2023-02-22T00:00:12;7.60;99.90
14006;DHT22;7078;51.542;7.314;2023-02-22T00:02:45;7.50;99.90
14006;DHT22;7078;51.542;7.314;2023-02-22T00:05:10;7.50;99.90
14006;DHT22;7078;51.542;7.314;2023-02-22T00:07:39;7.40;99.90
14006;DHT22;7078;51.542;7.314;2023-02-22T00:10:05;7.30;99.90
14006;DHT22;7078;51.542;7.314;2023-02-22T00:12:41;7.30;99.90
14006;DHT22;7078;51.542;7.314;2023-02-22T00:15:07;7.20;99.90
14006;DHT22;7078;51.542;7.314;2023-02-22T00:17:33;7.10;99.90
14006;DHT22;7078;51.542;7.314;2023-02-22T00:19:59;7.10;99.90
14006;DHT22;7078;51.542;7.314;2023-02-22T00:22:25;7.00;99.90
14006;DHT22;7078;51.542;7.314;2023-02-22T00:24:50;6.90;99.90
14006;DHT22;7078;51.542;7.314;2023-02-22T00:27:16;6.90;99.90
14006;DHT22;7078;51.542;7.314;2023-02-22T00:29:45;6.80;99.90
14006;DHT22;7078;51.542;7.314;2023-02-22T00:32:11;6.80;99.90
14006;DHT22;7078;51.542;7.314;2023-02-22T00:34:37;6.70;99.90
14006;DHT22;7078;51.542;7.314;2023-02-22T00:37:02;6.70;99.90
14006;DHT22;7078;51.542;7.314;2023-02-22T00:39:29;6.70;99.90
14006;DHT22;7078;51.542;7.314;2023-02-22T00:41:55;6.70;99.90
14006;DHT22;7078;51.542;7.314;2023-02-22T00:44:21;6.70;99.90
14006;DHT22;7078;51.542;7.314;2023-02-22T00:46:47;6.70;99.90
14006;DHT22;7078;51.542;7.314;2023-02-22T00:49:15;6.70;99.90
14006;DHT22;7078;51.542;7.314;2023-02-22T00:51:41;6.70;99.90
14006;DHT22;7078;51.542;7.314;2023-02-22T00:54:06;6.70;99.90
14006;DHT22;7078;51.542;7.314;2023-02-22T00:56:33;6.70;99.90
14006;DHT22;7078;51.542;7.314;2023-02-22T00:58:59;6.90;99.90
14006;DHT22;7078;51.542;7.314;2023-02-22T01:01:26;6.70;99.90
14006;DHT22;7078;51.542;7.314;2023-02-22T01:03:51;6.80;99.90
14006;DHT22;7078;51.542;7.314;2023-02-22T01:06:17;6.80;99.90
14006;DHT22;7078;51.542;7.314;2023-02-22T01:08:44;6.80;99.90
14006;DHT22;7078;51.542;7.314;2023-02-22T01:11:10;6.80;99.90
14006;DHT22;7078;51.542;7.314;2023-02-22T01:13:36;6.90;99.90
14006;DHT22;7078;51.542;7.314;2023-02-22T01:16:04;6.90;99.90
14006;DHT22;7078;51.542;7.314;2023-02-22T01:18:33;7.00;99.90
14006;DHT22;7078;51.542;7.314;2023-02-22T01:21:00;7.10;99.90
14006;DHT22;7078;51.542;7.314;2023-02-22T01:23:26;7.10;99.90
14006;DHT22;7078;51.542;7.314;2023-02-22T01:25:51;7.20;99.90
14006;DHT22;7078;51.542;7.314;2023-02-22T01:28:17;7.10;99.90
14006;DHT22;7078;51.542;7.314;2023-02-22T01:30:42;7.20;99.90
14006;DHT22;7078;51.542;7.314;2023-02-22T01:33:08;7.20;99.90
14006;DHT22;7078;51.542;7.314;2023-02-22T01:35:37;7.20;99.90
14006;DHT22;7078;51.542;7.314;2023-02-22T01:38:05;7.20;99.90
14006;DHT22;7078;51.542;7.314;2023-02-22T01:40:39;7.20;99.90
14006;DHT22;7078;51.542;7.314;2023-02-22T01:43:21;7.20;99.90
14006;DHT22;7078;51.542;7.314;2023-02-22T01:48:17;7.20;99.90
14006;DHT22;7078;51.542;7.314;2023-02-22T01:50:53;7.20;99.90
14006;DHT22;7078;51.542;7.314;2023-02-22T01:53:22;7.10;99.90
14006;DHT22;7078;51.542;7.314;2023-02-22T01:55:49;7.00;99.90
14006;DHT22;7078;51.542;7.314;2023-02-22T01:58:17;7.10;99.90
14006;DHT22;7078;51.542;7.314;2023-02-22T02:00:43;7.00;99.90
14006;DHT22;7078;51.542;7.314;2023-02-22T02:03:16;7.10;99.90
14006;DHT22;7078;51.542;7.314;2023-02-22T02:05:42;7.10;99.90
14006;DHT22;7078;51.542;7.314;2023-02-22T02:08:23;7.00;99.90
14006;DHT22;7078;51.542;7.314;2023-02-22T02:10:54;7.10;99.90
14006;DHT22;7078;51.542;7.314;2023-02-22T02:13:19;7.10;99.90
14006;DHT22;7078;51.542;7.314;2023-02-22T02:15:45;7.10;99.90
14006;DHT22;7078;51.542;7.314;2023-02-22T02:18:14;7.10;99.90
14006;DHT22;7078;51.542;7.314;2023-02-22T02:23:37;7.10;99.90
14006;DHT22;7078;51.542;7.314;2023-02-22T02:26:28;7.10;99.90
14006;DHT22;7078;51.542;7.314;2023-02-22T02:43:03;6.90;99.90
14006;DHT22;7078;51.542;7.314;2023-02-22T02:46:00;6.90;99.90
14006;DHT22;7078;51.542;7.314;2023-02-22T02:48:31;6.90;99.90
14006;DHT22;7078;51.542;7.314;2023-02-22T02:51:00;7.00;99.90
14006;DHT22;7078;51.542;7.314;2023-02-22T02:53:33;6.90;99.90
14006;DHT22;7078;51.542;7.314;2023-02-22T02:55:59;6.80;99.90
14006;DHT22;7078;51.542;7.314;2023-02-22T02:58:25;6.80;99.90
14006;DHT22;7078;51.542;7.314;2023-02-22T03:00:54;6.80;99.90
14006;DHT22;7078;51.542;7.314;2023-02-22T03:03:36;6.80;99.90
14006;DHT22;7078;51.542;7.314;2023-02-22T03:08:56;6.80;99.90
14006;DHT22;7078;51.542;7.314;2023-02-22T03:11:59;6.80;99.90
14006;DHT22;7078;51.542;7.314;2023-02-22T03:14:38;6.80;99.90
14006;DHT22;7078;51.542;7.314;2023-02-22T03:17:25;6.80;99.90
14006;DHT22;7078;51.542;7.314;2023-02-22T03:20:05;6.80;99.90
14006;DHT22;7078;51.542;7.314;2023-02-22T03:22:42;6.80;99.90
14006;DHT22;7078;51.542;7.314;2023-02-22T03:25:33;6.80;99.90
14006;DHT22;7078;51.542;7.314;2023-02-22T03:28:05;6.80;99.90
14006;DHT22;7078;51.542;7.314;2023-02-22T03:30:39;6.80;99.90
14006;DHT22;7078;51.542;7.314;2023-02-22T03:33:16;6.80;99.90
14006;DHT22;7078;51.542;7.314;2023-02-22T03:35:50;6.80;99.90
14006;DHT22;7078;51.542;7.314;2023-02-22T03:38:22;6.80;99.90
14006;DHT22;7078;51.542;7.314;2023-02-22T03:40:50;6.80;99.90
14006;DHT22;7078;51.542;7.314;2023-02-22T03:43:23;6.80;99.90
14006;DHT22;7078;51.542;7.314;2023-02-22T03:45:49;6.80;99.90
14006;DHT22;7078;51.542;7.314;2023-02-22T03:48:44;6.80;99.90
14006;DHT22;7078;51.542;7.314;2023-02-22T03:51:14;6.80;99.90
14006;DHT22;7078;51.542;7.314;2023-02-22T03:53:41;6.80;99.90
14006;DHT22;7078;51.542;7.314;2023-02-22T03:56:10;6.80;99.90
14006;DHT22;7078;51.542;7.314;2023-02-22T03:58:39;6.80;99.90
14006;DHT22;7078;51.542;7.314;2023-02-22T04:01:09;6.80;99.90
14006;DHT22;7078;51.542;7.314;2023-02-22T04:03:35;6.80;99.90
14006;DHT22;7078;51.542;7.314;2023-02-22T04:06:00;6.80;99.90
14006;DHT22;7078;51.542;7.314;2023-02-22T04:08:26;6.80;99.90
14006;DHT22;7078;51.542;7.314;2023-02-22T04:10:51;6.80;99.90
14006;DHT22;7078;51.542;7.314;2023-02-22T04:13:17;6.70;99.90
14006;DHT22;7078;51.542;7.314;2023-02-22T04:15:42;6.70;99.90
14006;DHT22;7078;51.542;7.314;2023-02-22T04:18:08;6.70;99.90
14006;DHT22;7078;51.542;7.314;2023-02-22T04:20:33;6.70;99.90
14006;DHT22;7078;51.542;7.314;2023-02-22T04:22:59;6.70;99.90
14006;DHT22;7078;51.542;7.314;2023-02-22T04:25:25;6.60;99.90
14006;DHT22;7078;51.542;7.314;2023-02-22T04:27:50;6.60;99.90
14006;DHT22;7078;51.542;7.314;2023-02-22T04:30:17;6.60;99.90
14006;DHT22;7078;51.542;7.314;2023-02-22T04:32:43;6.60;99.90
14006;DHT22;7078;51.542;7.314;2023-02-22T04:35:09;6.60;99.90
14006;DHT22;7078;51.542;7.314;2023-02-22T04:37:35;6.50;99.90
14006;DHT22;7078;51.542;7.314;2023-02-22T04:40:02;6.50;99.90
14006;DHT22;7078;51.542;7.314;2023-02-22T04:42:32;6.40;99.90
14006;DHT22;7078;51.542;7.314;2023-02-22T04:44:58;6.40;99.90
14006;DHT22;7078;51.542;7.314;2023-02-22T04:47:23;6.40;99.90
14006;DHT22;7078;51.542;7.314;2023-02-22T04:49:49;6.40;99.90
14006;DHT22;7078;51.542;7.314;2023-02-22T04:52:14;6.40;99.90
14006;DHT22;7078;51.542;7.314;2023-02-22T04:54:40;6.40;99.90
14006;DHT22;7078;51.542;7.314;2023-02-22T04:57:06;6.30;99.90
14006;DHT22;7078;51.542;7.314;2023-02-22T04:59:31;6.30;99.90
14006;DHT22;7078;51.542;7.314;2023-02-22T05:01:57;6.30;99.90
14006;DHT22;7078;51.542;7.314;2023-02-22T05:04:23;6.30;99.90
14006;DHT22;7078;51.542;7.314;2023-02-22T05:06:48;6.30;99.90
14006;DHT22;7078;51.542;7.314;2023-02-22T05:09:14;6.30;99.90
14006;DHT22;7078;51.542;7.314;2023-02-22T05:11:39;6.20;99.90
14006;DHT22;7078;51.542;7.314;2023-02-22T05:14:05;6.20;99.90
14006;DHT22;7078;51.542;7.314;2023-02-22T05:16:31;6.20;99.90
14006;DHT22;7078;51.542;7.314;2023-02-22T05:18:56;6.20;99.90
14006;DHT22;7078;51.542;7.314;2023-02-22T05:21:22;6.20;99.90
14006;DHT22;7078;51.542;7.314;2023-02-22T05:23:48;6.10;99.90
14006;DHT22;7078;51.542;7.314;2023-02-22T05:26:13;6.10;99.90
14006;DHT22;7078;51.542;7.314;2023-02-22T05:28:39;6.00;99.90
14006;DHT22;7078;51.542;7.314;2023-02-22T05:31:04;6.30;99.90
14006;DHT22;7078;51.542;7.314;2023-02-22T05:33:32;6.60;99.90
14006;DHT22;7078;51.542;7.314;2023-02-22T05:35:57;7.00;99.90
14006;DHT22;7078;51.542;7.314;2023-02-22T05:38:23;7.30;99.90
14006;DHT22;7078;51.542;7.314;2023-02-22T05:40:49;7.40;99.90
14006;DHT22;7078;51.542;7.314;2023-02-22T05:43:15;7.50;99.90
14006;DHT22;7078;51.542;7.314;2023-02-22T05:45:40;7.40;99.90
14006;DHT22;7078;51.542;7.314;2023-02-22T05:48:06;7.40;99.90
14006;DHT22;7078;51.542;7.314;2023-02-22T05:50:33;7.30;99.90
14006;DHT22;7078;51.542;7.314;2023-02-22T05:52:59;7.20;99.90
14006;DHT22;7078;51.542;7.314;2023-02-22T05:55:25;7.30;99.90
14006;DHT22;7078;51.542;7.314;2023-02-22T05:57:51;7.30;99.90
14006;DHT22;7078;51.542;7.314;2023-02-22T06:00:23;7.20;99.90
14006;DHT22;7078;51.542;7.314;2023-02-22T06:02:57;7.20;99.90
14006;DHT22;7078;51.542;7.314;2023-02-22T06:05:23;7.20;99.90
14006;DHT22;7078;51.542;7.314;2023-02-22T06:07:49;7.30;99.90
14006;DHT22;7078;51.542;7.314;2023-02-22T06:10:15;7.40;99.90
14006;DHT22;7078;51.542;7.314;2023-02-22T06:12:41;7.30;99.90
14006;DHT22;7078;51.542;7.314;2023-02-22T06:15:06;7.10;99.90
14006;DHT22;7078;51.542;7.314;2023-02-22T06:17:32;6.90;99.90
14006;DHT22;7078;51.542;7.314;2023-02-22T06:19:57;6.60;99.90
14006;DHT22;7078;51.542;7.314;2023-02-22T06:22:23;6.50;99.90
14006;DHT22;7078;51.542;7.314;2023-02-22T06:24:49;6.30;99.90
14006;DHT22;7078;51.542;7.314;2023-02-22T06:27:14;6.20;99.90
14006;DHT22;7078;51.542;7.314;2023-02-22T06:29:43;6.10;99.90
14006;DHT22;7078;51.542;7.314;2023-02-22T06:32:09;6.00;99.90
14006;DHT22;7078;51.542;7.314;2023-02-22T06:34:35;5.90;99.90
14006;DHT22;7078;51.542;7.314;2023-02-22T06:37:00;5.80;99.90
14006;DHT22;7078;51.542;7.314;2023-02-22T06:39:26;5.80;99.90
14006;DHT22;7078;51.542;7.314;2023-02-22T06:41:52;5.70;99.90
14006;DHT22;7078;51.542;7.314;2023-02-22T06:44:19;5.70;99.90
14006;DHT22;7078;51.542;7.314;2023-02-22T06:46:49;5.60;99.90
14006;DHT22;7078;51.542;7.314;2023-02-22T06:49:19;5.50;99.90
14006;DHT22;7078;51.542;7.314;2023-02-22T06:51:45;5.60;99.90
14006;DHT22;7078;51.542;7.314;2023-02-22T06:54:11;5.50;99.90
14006;DHT22;7078;51.542;7.314;2023-02-22T06:56:37;5.50;99.90
14006;DHT22;7078;51.542;7.314;2023-02-22T06:59:03;5.40;99.90
14006;DHT22;7078;51.542;7.314;2023-02-22T07:01:29;5.40;99.90
14006;DHT22;7078;51.542;7.314;2023-02-22T07:03:55;5.40;99.90
14006;DHT22;7078;51.542;7.314;2023-02-22T07:06:20;5.40;99.90
14006;DHT22;7078;51.542;7.314;2023-02-22T07:08:47;5.40;99.90
14006;DHT22;7078;51.542;7.314;2023-02-22T07:11:12;5.40;99.90
14006;DHT22;7078;51.542;7.314;2023-02-22T07:13:38;5.40;99.90
14006;DHT22;7078;51.542;7.314;2023-02-22T07:16:04;5.40;99.90
14006;DHT22;7078;51.542;7.314;2023-02-22T07:18:30;5.40;99.90
14006;DHT22;7078;51.542;7.314;2023-02-22T07:20:55;5.30;99.90
14006;DHT22;7078;51.542;7.314;2023-02-22T07:23:23;5.30;99.90
14006;DHT22;7078;51.542;7.314;2023-02-22T07:25:48;5.40;99.90
14006;DHT22;7078;51.542;7.314;2023-02-22T07:28:15;5.40;99.90
14006;DHT22;7078;51.542;7.314;2023-02-22T07:30:40;5.50;99.90
14006;DHT22;7078;51.542;7.314;2023-02-22T07:33:08;5.50;99.90
14006;DHT22;7078;51.542;7.314;2023-02-22T07:35:36;5.60;99.90
14006;DHT22;7078;51.542;7.314;2023-02-22T07:38:04;5.60;99.90
14006;DHT22;7078;51.542;7.314;2023-02-22T07:40:30;5.70;99.90
14006;DHT22;7078;51.542;7.314;2023-02-22T07:45:38;5.80;99.90
14006;DHT22;7078;51.542;7.314;2023-02-22T07:48:05;5.80;99.90
14006;DHT22;7078;51.542;7.314;2023-02-22T07:50:32;5.80;99.90
14006;DHT22;7078;51.542;7.314;2023-02-22T07:53:05;5.80;99.90
14006;DHT22;7078;51.542;7.314;2023-02-22T07:55:31;5.80;99.90
14006;DHT22;7078;51.542;7.314;2023-02-22T07:58:04;5.90;99.90
14006;DHT22;7078;51.542;7.314;2023-02-22T08:00:32;6.00;99.90
14006;DHT22;7078;51.542;7.314;2023-02-22T08:03:00;6.10;99.90
14006;DHT22;7078;51.542;7.314;2023-02-22T08:05:28;6.20;99.90
14006;DHT22;7078;51.542;7.314;2023-02-22T08:07:54;6.20;99.90
14006;DHT22;7078;51.542;7.314;2023-02-22T08:10:21;6.20;99.90
14006;DHT22;7078;51.542;7.314;2023-02-22T08:12:47;6.20;99.90
14006;DHT22;7078;51.542;7.314;2023-02-22T08:15:16;6.30;99.90
14006;DHT22;7078;51.542;7.314;2023-02-22T08:17:42;6.40;99.90
14006;DHT22;7078;51.542;7.314;2023-02-22T08:20:07;6.50;99.90
14006;DHT22;7078;51.542;7.314;2023-02-22T08:22:33;6.50;99.90
14006;DHT22;7078;51.542;7.314;2023-02-22T08:24:59;6.60;99.90
14006;DHT22;7078;51.542;7.314;2023-02-22T08:27:30;6.50;99.90
14006;DHT22;7078;51.542;7.314;2023-02-22T08:29:55;6.60;99.90
14006;DHT22;7078;51.542;7.314;2023-02-22T08:32:22;6.60;99.90
14006;DHT22;7078;51.542;7.314;2023-02-22T08:34:48;6.70;99.90
14006;DHT22;7078;51.542;7.314;2023-02-22T08:37:16;6.80;99.90
14006;DHT22;7078;51.542;7.314;2023-02-22T08:39:42;6.90;99.90
14006;DHT22;7078;51.542;7.314;2023-02-22T08:42:08;7.00;99.90
14006;DHT22;7078;51.542;7.314;2023-02-22T08:44:35;7.10;99.90
14006;DHT22;7078;51.542;7.314;2023-02-22T08:47:02;7.20;99.90
14006;DHT22;7078;51.542;7.314;2023-02-22T08:49:27;7.20;99.90
14006;DHT22;7078;51.542;7.314;2023-02-22T08:51:53;7.30;99.90
14006;DHT22;7078;51.542;7.314;2023-02-22T08:54:18;7.30;99.90
14006;DHT22;7078;51.542;7.314;2023-02-22T08:56:44;7.30;99.90
14006;DHT22;7078;51.542;7.314;2023-02-22T08:59:09;7.40;99.90
14006;DHT22;7078;51.542;7.314;2023-02-22T09:01:35;7.40;99.90
14006;DHT22;7078;51.542;7.314;2023-02-22T09:04:01;7.40;99.90
14006;DHT22;7078;51.542;7.314;2023-02-22T09:06:27;7.50;99.90
14006;DHT22;7078;51.542;7.314;2023-02-22T09:08:54;7.50;99.90
14006;DHT22;7078;51.542;7.314;2023-02-22T09:11:19;7.70;99.90
14006;DHT22;7078;51.542;7.314;2023-02-22T09:13:45;7.80;99.90
14006;DHT22;7078;51.542;7.314;2023-02-22T09:16:10;7.90;99.90
14006;DHT22;7078;51.542;7.314;2023-02-22T09:18:36;8.00;99.90
14006;DHT22;7078;51.542;7.314;2023-02-22T09:21:03;8.10;99.90
14006;DHT22;7078;51.542;7.314;2023-02-22T09:23:28;8.20;99.90
14006;DHT22;7078;51.542;7.314;2023-02-22T09:25:54;8.30;99.90
14006;DHT22;7078;51.542;7.314;2023-02-22T09:28:19;8.40;99.90
14006;DHT22;7078;51.542;7.314;2023-02-22T09:30:45;8.50;99.90
14006;DHT22;7078;51.542;7.314;2023-02-22T09:33:15;8.50;99.90
14006;DHT22;7078;51.542;7.314;2023-02-22T09:35:42;8.60;99.90
14006;DHT22;7078;51.542;7.314;2023-02-22T09:38:12;8.70;99.90
14006;DHT22;7078;51.542;7.314;2023-02-22T09:40:42;8.80;99.90
14006;DHT22;7078;51.542;7.314;2023-02-22T09:46:07;9.00;99.90
14006;DHT22;7078;51.542;7.314;2023-02-22T09:48:58;9.10;99.90
14006;DHT22;7078;51.542;7.314;2023-02-22T09:51:32;9.20;99.90
14006;DHT22;7078;51.542;7.314;2023-02-22T09:54:01;9.30;99.90
14006;DHT22;7078;51.542;7.314;2023-02-22T09:56:29;9.40;99.90
14006;DHT22;7078;51.542;7.314;2023-02-22T09:59:00;9.60;99.90
14006;DHT22;7078;51.542;7.314;2023-02-22T10:04:10;9.80;99.90
14006;DHT22;7078;51.542;7.314;2023-02-22T10:06:38;10.00;99.90
14006;DHT22;7078;51.542;7.314;2023-02-22T10:09:08;10.00;99.90
14006;DHT22;7078;51.542;7.314;2023-02-22T10:11:39;10.20;99.90
14006;DHT22;7078;51.542;7.314;2023-02-22T10:23:08;11.00;99.90
14006;DHT22;7078;51.542;7.314;2023-02-22T10:25:37;11.20;99.90
14006;DHT22;7078;51.542;7.314;2023-02-22T10:28:10;11.40;99.90
14006;DHT22;7078;51.542;7.314;2023-02-22T10:30:41;11.50;99.90
14006;DHT22;7078;51.542;7.314;2023-02-22T10:33:14;11.70;99.90
14006;DHT22;7078;51.542;7.314;2023-02-22T10:35:42;11.80;99.90
14006;DHT22;7078;51.542;7.314;2023-02-22T10:38:19;12.00;99.90
14006;DHT22;7078;51.542;7.314;2023-02-22T10:40:57;12.10;99.90
14006;DHT22;7078;51.542;7.314;2023-02-22T10:43:24;12.30;99.90
14006;DHT22;7078;51.542;7.314;2023-02-22T10:45:52;12.40;99.90
14006;DHT22;7078;51.542;7.314;2023-02-22T10:48:21;12.50;99.90
14006;DHT22;7078;51.542;7.314;2023-02-22T10:50:48;12.70;99.90
14006;DHT22;7078;51.542;7.314;2023-02-22T10:53:15;12.80;99.90
14006;DHT22;7078;51.542;7.314;2023-02-22T10:56:18;12.80;99.90
14006;DHT22;7078;51.542;7.314;2023-02-22T10:58:57;12.90;99.90
14006;DHT22;7078;51.542;7.314;2023-02-22T11:04:05;13.00;99.90
14006;DHT22;7078;51.542;7.314;2023-02-22T11:06:33;13.20;99.90
14006;DHT22;7078;51.542;7.314;2023-02-22T11:09:07;13.30;99.90
14006;DHT22;7078;51.542;7.314;2023-02-22T11:11:35;13.40;99.90
14006;DHT22;7078;51.542;7.314;2023-02-22T11:14:01;13.60;99.90
14006;DHT22;7078;51.542;7.314;2023-02-22T11:16:37;13.80;99.90
14006;DHT22;7078;51.542;7.314;2023-02-22T11:19:18;13.80;99.90
14006;DHT22;7078;51.542;7.314;2023-02-22T11:21:49;13.90;99.90
14006;DHT22;7078;51.542;7.314;2023-02-22T11:24:20;14.10;99.90
14006;DHT22;7078;51.542;7.314;2023-02-22T11:26:53;14.20;99.90
14006;DHT22;7078;51.542;7.314;2023-02-22T11:29:28;14.30;99.90
14006;DHT22;7078;51.542;7.314;2023-02-22T11:32:02;14.50;99.90
14006;DHT22;7078;51.542;7.314;2023-02-22T11:34:36;14.60;99.90
14006;DHT22;7078;51.542;7.314;2023-02-22T11:40:12;14.70;99.90
14006;DHT22;7078;51.542;7.314;2023-02-22T11:42:42;14.80;99.90
14006;DHT22;7078;51.542;7.314;2023-02-22T11:45:09;14.80;99.90
14006;DHT22;7078;51.542;7.314;2023-02-22T11:47:50;14.80;99.90
14006;DHT22;7078;51.542;7.314;2023-02-22T11:50:52;14.90;99.90
14006;DHT22;7078;51.542;7.314;2023-02-22T11:56:21;15.00;98.70
14006;DHT22;7078;51.542;7.314;2023-02-22T11:59:11;15.10;99.50
14006;DHT22;7078;51.542;7.314;2023-02-22T12:04:47;15.20;97.20
14006;DHT22;7078;51.542;7.314;2023-02-22T12:07:27;15.30;96.70
14006;DHT22;7078;51.542;7.314;2023-02-22T12:15:58;15.40;96.30
14006;DHT22;7078;51.542;7.314;2023-02-22T12:21:23;15.40;95.40
14006;DHT22;7078;51.542;7.314;2023-02-22T12:26:33;15.60;94.90
14006;DHT22;7078;51.542;7.314;2023-02-22T12:31:40;15.70;92.10
14006;DHT22;7078;51.542;7.314;2023-02-22T12:36:55;15.80;91.10
14006;DHT22;7078;51.542;7.314;2023-02-22T12:45:04;15.90;89.90
14006;DHT22;7078;51.542;7.314;2023-02-22T12:47:37;15.90;90.00
14006;DHT22;7078;51.542;7.314;2023-02-22T12:50:12;15.90;88.20
14006;DHT22;7078;51.542;7.314;2023-02-22T12:55:23;16.00;89.00
14006;DHT22;7078;51.542;7.314;2023-02-22T12:58:12;16.00;89.70
14006;DHT22;7078;51.542;7.314;2023-02-22T13:00:51;16.00;89.50
14006;DHT22;7078;51.542;7.314;2023-02-22T13:06:32;16.20;88.40
14006;DHT22;7078;51.542;7.314;2023-02-22T13:09:31;16.20;88.70
14006;DHT22;7078;51.542;7.314;2023-02-22T13:12:18;16.30;87.90
14006;DHT22;7078;51.542;7.314;2023-02-22T13:14:52;16.30;88.10
14006;DHT22;7078;51.542;7.314;2023-02-22T13:20:22;16.20;87.90
14006;DHT22;7078;51.542;7.314;2023-02-22T13:25:58;16.10;88.80
14006;DHT22;7078;51.542;7.314;2023-02-22T13:39:38;16.30;89.10
14006;DHT22;7078;51.542;7.314;2023-02-22T13:42:32;16.20;87.80
14006;DHT22;7078;51.542;7.314;2023-02-22T13:53:20;16.30;87.30
14006;DHT22;7078;51.542;7.314;2023-02-22T13:55:52;16.30;85.70
14006;DHT22;7078;51.542;7.314;2023-02-22T13:58:18;16.30;86.30
14006;DHT22;7078;51.542;7.314;2023-02-22T14:00:53;16.40;86.20
14006;DHT22;7078;51.542;7.314;2023-02-22T14:03:32;16.40;86.40
14006;DHT22;7078;51.542;7.314;2023-02-22T14:06:02;16.30;86.80
14006;DHT22;7078;51.542;7.314;2023-02-22T14:13:31;16.30;88.00
14006;DHT22;7078;51.542;7.314;2023-02-22T14:23:44;16.20;88.00
14006;DHT22;7078;51.542;7.314;2023-02-22T14:28:57;16.10;87.80
14006;DHT22;7078;51.542;7.314;2023-02-22T14:31:28;16.10;87.90
14006;DHT22;7078;51.542;7.314;2023-02-22T14:39:41;16.00;85.90
14006;DHT22;7078;51.542;7.314;2023-02-22T14:42:13;15.90;85.30
14006;DHT22;7078;51.542;7.314;2023-02-22T14:47:26;15.80;82.60
14006;DHT22;7078;51.542;7.314;2023-02-22T14:49:58;15.80;83.00
14006;DHT22;7078;51.542;7.314;2023-02-22T14:52:29;15.80;82.70
14006;DHT22;7078;51.542;7.314;2023-02-22T14:55:13;15.70;84.60
14006;DHT22;7078;51.542;7.314;2023-02-22T14:57:49;15.70;85.20
14006;DHT22;7078;51.542;7.314;2023-02-22T15:00:24;15.70;85.40
14006;DHT22;7078;51.542;7.314;2023-02-22T15:02:58;15.70;85.00
14006;DHT22;7078;51.542;7.314;2023-02-22T15:05:26;15.80;84.40
14006;DHT22;7078;51.542;7.314;2023-02-22T15:08:00;15.80;84.50
14006;DHT22;7078;51.542;7.314;2023-02-22T15:10:28;15.80;84.70
14006;DHT22;7078;51.542;7.314;2023-02-22T15:13:04;15.80;83.90
14006;DHT22;7078;51.542;7.314;2023-02-22T15:15:47;15.70;83.70
14006;DHT22;7078;51.542;7.314;2023-02-22T15:18:21;15.70;84.30
14006;DHT22;7078;51.542;7.314;2023-02-22T15:20:50;15.70;84.10
14006;DHT22;7078;51.542;7.314;2023-02-22T15:23:24;15.70;84.50
14006;DHT22;7078;51.542;7.314;2023-02-22T15:25:50;15.60;84.30
14006;DHT22;7078;51.542;7.314;2023-02-22T15:28:17;15.60;84.50
14006;DHT22;7078;51.542;7.314;2023-02-22T15:30:43;15.60;85.70
14006;DHT22;7078;51.542;7.314;2023-02-22T15:33:16;15.50;86.10
14006;DHT22;7078;51.542;7.314;2023-02-22T15:35:55;15.40;86.90
14006;DHT22;7078;51.542;7.314;2023-02-22T15:38:28;15.30;87.90
14006;DHT22;7078;51.542;7.314;2023-02-22T15:41:05;15.30;89.30
14006;DHT22;7078;51.542;7.314;2023-02-22T15:43:32;15.20;90.20
14006;DHT22;7078;51.542;7.314;2023-02-22T15:45:59;15.10;90.40
14006;DHT22;7078;51.542;7.314;2023-02-22T15:48:26;15.10;90.90
14006;DHT22;7078;51.542;7.314;2023-02-22T15:51:10;15.00;90.80
14006;DHT22;7078;51.542;7.314;2023-02-22T15:56:15;14.80;91.50
14006;DHT22;7078;51.542;7.314;2023-02-22T15:58:43;14.80;91.90
14006;DHT22;7078;51.542;7.314;2023-02-22T16:01:13;14.70;92.10
14006;DHT22;7078;51.542;7.314;2023-02-22T16:03:55;14.70;92.60
14006;DHT22;7078;51.542;7.314;2023-02-22T16:06:39;14.60;93.10
14006;DHT22;7078;51.542;7.314;2023-02-22T16:09:14;14.60;94.00
14006;DHT22;7078;51.542;7.314;2023-02-22T16:11:42;14.50;94.20
14006;DHT22;7078;51.542;7.314;2023-02-22T16:14:27;14.40;94.30
14006;DHT22;7078;51.542;7.314;2023-02-22T16:17:26;14.40;95.00
14006;DHT22;7078;51.542;7.314;2023-02-22T16:22:44;14.20;96.60
14006;DHT22;7078;51.542;7.314;2023-02-22T16:27:46;14.10;98.10
14006;DHT22;7078;51.542;7.314;2023-02-22T16:32:44;13.90;99.90
14006;DHT22;7078;51.542;7.314;2023-02-22T16:35:11;13.70;99.90
14006;DHT22;7078;51.542;7.314;2023-02-22T16:37:56;13.60;99.90
14006;DHT22;7078;51.542;7.314;2023-02-22T16:41:00;13.60;99.90
14006;DHT22;7078;51.542;7.314;2023-02-22T16:43:24;13.50;99.90
14006;DHT22;7078;51.542;7.314;2023-02-22T16:45:50;13.40;99.90
14006;DHT22;7078;51.542;7.314;2023-02-22T16:48:18;13.40;99.90
14006;DHT22;7078;51.542;7.314;2023-02-22T16:50:46;13.40;99.90
14006;DHT22;7078;51.542;7.314;2023-02-22T16:53:12;13.30;99.90
14006;DHT22;7078;51.542;7.314;2023-02-22T16:55:41;13.30;99.90
14006;DHT22;7078;51.542;7.314;2023-02-22T16:58:10;13.20;99.90
14006;DHT22;7078;51.542;7.314;2023-02-22T17:00:36;13.20;99.90
14006;DHT22;7078;51.542;7.314;2023-02-22T17:03:03;13.10;99.90
14006;DHT22;7078;51.542;7.314;2023-02-22T17:05:32;13.00;99.90
14006;DHT22;7078;51.542;7.314;2023-02-22T17:08:02;13.00;99.90
14006;DHT22;7078;51.542;7.314;2023-02-22T17:10:28;12.90;99.90
14006;DHT22;7078;51.542;7.314;2023-02-22T17:12:54;12.90;99.90
14006;DHT22;7078;51.542;7.314;2023-02-22T17:15:26;12.80;99.90
14006;DHT22;7078;51.542;7.314;2023-02-22T17:17:54;12.80;99.90
14006;DHT22;7078;51.542;7.314;2023-02-22T17:20:20;12.70;99.90
14006;DHT22;7078;51.542;7.314;2023-02-22T17:22:59;12.60;99.90
14006;DHT22;7078;51.542;7.314;2023-02-22T17:25:28;12.60;99.90
14006;DHT22;7078;51.542;7.314;2023-02-22T17:27:55;12.60;99.90
14006;DHT22;7078;51.542;7.314;2023-02-22T17:30:20;12.50;99.90
14006;DHT22;7078;51.542;7.314;2023-02-22T17:32:50;12.50;99.90
14006;DHT22;7078;51.542;7.314;2023-02-22T17:35:19;12.50;99.90
14006;DHT22;7078;51.542;7.314;2023-02-22T17:37:48;12.40;99.90
14006;DHT22;7078;51.542;7.314;2023-02-22T17:40:14;12.40;99.90
14006;DHT22;7078;51.542;7.314;2023-02-22T17:42:44;12.40;99.90
14006;DHT22;7078;51.542;7.314;2023-02-22T17:45:12;12.40;99.90
14006;DHT22;7078;51.542;7.314;2023-02-22T17:47:40;12.30;99.90
14006;DHT22;7078;51.542;7.314;2023-02-22T17:50:07;12.30;99.90
14006;DHT22;7078;51.542;7.314;2023-02-22T17:52:32;12.30;99.90
14006;DHT22;7078;51.542;7.314;2023-02-22T17:54:58;12.20;99.90
14006;DHT22;7078;51.542;7.314;2023-02-22T17:57:24;12.20;99.90
14006;DHT22;7078;51.542;7.314;2023-02-22T17:59:49;12.20;99.90
14006;DHT22;7078;51.542;7.314;2023-02-22T18:02:15;12.20;99.90
14006;DHT22;7078;51.542;7.314;2023-02-22T18:04:40;12.10;99.90
14006;DHT22;7078;51.542;7.314;2023-02-22T18:07:06;12.10;99.90
14006;DHT22;7078;51.542;7.314;2023-02-22T18:09:32;12.10;99.90
14006;DHT22;7078;51.542;7.314;2023-02-22T18:11:58;12.10;99.90
14006;DHT22;7078;51.542;7.314;2023-02-22T18:14:23;12.10;99.90
14006;DHT22;7078;51.542;7.314;2023-02-22T18:16:49;12.10;99.90
14006;DHT22;7078;51.542;7.314;2023-02-22T18:19:14;12.10;99.90
14006;DHT22;7078;51.542;7.314;2023-02-22T18:21:44;12.10;99.90
14006;DHT22;7078;51.542;7.314;2023-02-22T18:24:09;12.10;99.90
14006;DHT22;7078;51.542;7.314;2023-02-22T18:26:35;12.00;99.90
14006;DHT22;7078;51.542;7.314;2023-02-22T18:29:03;12.00;99.90